createdAt,value
2018-11-10T00:00:39.029Z,19.43
2018-11-10T00:03:08.266Z,23.30
2018-11-10T00:05:37.321Z,18.00
2018-11-10T00:08:06.260Z,17.10
2018-11-10T00:10:35.158Z,19.33
2018-11-10T00:13:04.626Z,16.60
2018-11-10T00:15:33.583Z,14.50
2018-11-10T00:18:02.889Z,18.57
2018-11-10T00:20:31.966Z,13.57
2018-11-10T00:23:02.038Z,13.60
2018-11-10T00:25:30.950Z,16.20
2018-11-10T00:27:59.966Z,15.40
2018-11-10T00:30:29.356Z,17.47
2018-11-10T00:32:58.480Z,15.63
2018-11-10T00:35:27.588Z,23.07
2018-11-10T00:37:56.776Z,21.10
2018-11-10T00:40:25.792Z,13.23
2018-11-10T00:42:54.965Z,19.07
2018-11-10T00:45:24.186Z,16.93
2018-11-10T00:47:53.793Z,13.50
2018-11-10T00:50:23.165Z,18.37
2018-11-10T00:52:52.777Z,19.47
2018-11-10T00:55:21.815Z,20.00
2018-11-10T00:57:51.280Z,18.07
2018-11-10T01:00:20.588Z,21.73
2018-11-10T01:02:49.564Z,18.87
2018-11-10T01:05:23.265Z,20.70
2018-11-10T01:07:52.410Z,20.77
2018-11-10T01:10:21.648Z,20.27
2018-11-10T01:12:50.764Z,15.63
2018-11-10T01:15:20.144Z,16.83
2018-11-10T01:17:49.582Z,15.53
2018-11-10T01:20:18.792Z,18.97
2018-11-10T01:22:48.063Z,21.63
2018-11-10T01:25:17.414Z,20.00
2018-11-10T01:27:48.850Z,20.60
2018-11-10T01:30:18.213Z,19.23
2018-11-10T01:32:47.422Z,12.07
2018-11-10T01:35:16.735Z,18.20
2018-11-10T01:37:45.815Z,22.63
2018-11-10T01:40:15.552Z,20.17
2018-11-10T01:42:45.138Z,22.87
2018-11-10T01:45:16.649Z,22.87
2018-11-10T01:47:54.501Z,19.70
2018-11-10T01:50:23.778Z,13.17
2018-11-10T01:52:52.890Z,16.07
2018-11-10T01:55:21.979Z,16.73
2018-11-10T01:57:51.211Z,17.07
2018-11-10T02:00:20.575Z,17.93
2018-11-10T02:02:49.672Z,17.83
2018-11-10T02:05:19.069Z,20.00
2018-11-10T02:07:49.328Z,19.60
2018-11-10T02:10:18.481Z,22.70
2018-11-10T02:12:47.704Z,16.43
2018-11-10T02:15:17.742Z,25.57
2018-11-10T02:17:47.102Z,17.27
2018-11-10T02:20:18.370Z,16.63
2018-11-10T02:22:47.557Z,20.03
2018-11-10T02:25:16.860Z,15.43
2018-11-10T02:27:46.481Z,17.10
2018-11-10T02:30:15.687Z,18.67
2018-11-10T02:32:44.751Z,16.80
2018-11-10T02:35:17.577Z,23.53
2018-11-10T02:37:46.882Z,15.80
2018-11-10T02:40:16.193Z,16.87
2018-11-10T02:42:45.569Z,24.67
2018-11-10T02:45:15.637Z,18.30
2018-11-10T02:47:47.092Z,21.80
2018-11-10T02:50:16.474Z,25.60
2018-11-10T02:52:45.754Z,19.43
2018-11-10T02:55:14.860Z,19.07
2018-11-10T02:57:44.098Z,18.23
2018-11-10T03:00:14.378Z,14.23
2018-11-10T03:02:43.369Z,22.43
2018-11-10T03:05:12.680Z,18.80
2018-11-10T03:07:46.093Z,17.70
2018-11-10T03:10:15.626Z,14.60
2018-11-10T03:12:44.694Z,20.10
2018-11-10T03:15:13.823Z,20.93
2018-11-10T03:17:44.159Z,16.73
2018-11-10T03:20:14.454Z,19.67
2018-11-10T03:22:44.163Z,16.67
2018-11-10T03:25:13.536Z,31.00
2018-11-10T03:27:42.743Z,19.67
2018-11-10T03:30:13.018Z,19.33
2018-11-10T03:32:42.838Z,12.00
2018-11-10T03:35:12.357Z,15.60
2018-11-10T03:37:41.806Z,17.13
2018-11-10T03:40:12.839Z,16.33
2018-11-10T03:42:43.176Z,20.27
2018-11-10T03:45:13.104Z,16.27
2018-11-10T03:47:42.420Z,13.00
2018-11-10T03:50:12.047Z,15.00
2018-11-10T03:52:41.850Z,15.60
2018-11-10T03:55:11.222Z,17.60
2018-11-10T03:57:41.560Z,22.83
2018-11-10T04:00:12.664Z,20.00
2018-11-10T04:02:42.976Z,19.57
2018-11-10T04:05:13.250Z,16.73
2018-11-10T04:07:43.626Z,15.33
2018-11-10T04:10:13.598Z,17.33
2018-11-10T04:12:42.976Z,19.53
2018-11-10T04:15:12.338Z,19.73
2018-11-10T04:17:41.421Z,21.47
2018-11-10T04:20:11.999Z,17.37
2018-11-10T04:22:41.584Z,17.07
2018-11-10T04:25:11.820Z,16.10
2018-11-10T04:27:40.811Z,17.67
2018-11-10T04:30:10.758Z,18.73
2018-11-10T04:32:40.207Z,19.70
2018-11-10T04:35:10.642Z,16.07
2018-11-10T04:37:39.911Z,16.03
2018-11-10T04:40:09.782Z,23.90
2018-11-10T04:42:39.027Z,18.23
2018-11-10T04:45:09.160Z,13.90
2018-11-10T04:47:38.389Z,12.00
2018-11-10T04:50:09.832Z,20.17
2018-11-10T04:52:39.430Z,18.03
2018-11-10T04:55:09.698Z,17.27
2018-11-10T04:57:39.360Z,16.97
2018-11-10T05:00:10.842Z,11.80
2018-11-10T05:02:40.008Z,15.37
2018-11-10T05:05:09.060Z,14.73
2018-11-10T05:07:39.091Z,14.30
2018-11-10T05:10:09.331Z,17.87
2018-11-10T05:12:39.848Z,17.33
2018-11-10T05:15:10.187Z,13.97
2018-11-10T05:17:39.313Z,16.03
2018-11-10T05:20:08.965Z,16.43
2018-11-10T05:22:38.349Z,13.30
2018-11-10T05:25:08.449Z,11.20
2018-11-10T05:27:37.750Z,15.87
2018-11-10T05:30:07.584Z,14.17
2018-11-10T05:32:36.721Z,15.30
2018-11-10T05:35:06.463Z,11.70
2018-11-10T05:37:35.874Z,16.17
2018-11-10T05:40:05.843Z,15.63
2018-11-10T05:42:35.281Z,16.27
2018-11-10T05:45:05.023Z,16.47
2018-11-10T05:47:34.887Z,11.07
2018-11-10T05:50:04.058Z,16.37
2018-11-10T05:52:33.321Z,14.23
2018-11-10T05:55:02.940Z,15.30
2018-11-10T05:57:32.198Z,19.40
2018-11-10T06:00:01.393Z,18.47
2018-11-10T06:02:30.725Z,12.83
2018-11-10T06:04:59.855Z,15.03
2018-11-10T06:07:28.894Z,15.63
2018-11-10T06:09:58.365Z,13.30
2018-11-10T06:12:27.778Z,16.17
2018-11-10T06:14:57.110Z,12.63
2018-11-10T06:17:26.356Z,15.53
2018-11-10T06:19:58.932Z,14.33
2018-11-10T06:22:28.130Z,16.17
2018-11-10T06:24:58.440Z,15.73
2018-11-10T06:27:27.804Z,12.30
2018-11-10T06:29:56.901Z,15.97
2018-11-10T06:32:25.906Z,14.60
2018-11-10T06:34:54.997Z,14.37
2018-11-10T06:37:24.413Z,17.13
2018-11-10T06:39:53.602Z,18.47
2018-11-10T06:42:22.734Z,15.50
2018-11-10T06:44:52.722Z,16.77
2018-11-10T06:50:40.033Z,22.40
2018-11-10T06:53:11.779Z,21.17
2018-11-10T06:55:40.908Z,18.57
2018-11-10T06:58:10.540Z,16.17
2018-11-10T07:00:39.934Z,17.73
2018-11-10T07:03:09.183Z,17.00
2018-11-10T07:05:38.391Z,17.73
2018-11-10T07:08:07.732Z,17.50
2018-11-10T07:10:37.413Z,17.43
2018-11-10T07:13:07.295Z,17.40
2018-11-10T07:15:36.868Z,18.73
2018-11-10T07:18:07.041Z,17.67
2018-11-10T07:20:36.557Z,16.90
2018-11-10T07:23:06.850Z,18.93
2018-11-10T07:25:36.718Z,17.03
2018-11-10T07:28:07.314Z,17.23
2018-11-10T07:30:38.512Z,14.97
2018-11-10T07:33:08.302Z,16.53
2018-11-10T07:35:37.469Z,14.30
2018-11-10T07:38:07.448Z,17.33
2018-11-10T07:40:38.794Z,13.03
2018-11-10T07:43:10.113Z,12.83
2018-11-10T07:45:39.144Z,14.07
2018-11-10T07:48:10.644Z,13.27
2018-11-10T07:50:39.797Z,13.27
2018-11-10T07:53:08.778Z,23.47
2018-11-10T07:55:37.891Z,17.33
2018-11-10T07:58:07.445Z,13.90
2018-11-10T08:00:37.833Z,14.53
2018-11-10T08:03:06.837Z,15.33
2018-11-10T08:05:37.141Z,13.37
2018-11-10T08:08:06.270Z,12.77
2018-11-10T08:10:35.741Z,9.40
2018-11-10T08:13:05.353Z,14.37
2018-11-10T08:15:34.509Z,17.73
2018-11-10T08:18:03.691Z,14.27
2018-11-10T08:20:32.587Z,12.80
2018-11-10T08:23:01.915Z,11.53
2018-11-10T08:25:30.865Z,15.63
2018-11-10T08:27:59.796Z,14.87
2018-11-10T08:30:28.697Z,17.97
2018-11-10T08:33:00.119Z,17.30
2018-11-10T08:35:29.328Z,13.23
2018-11-10T08:37:58.330Z,16.47
2018-11-10T08:40:27.590Z,14.17
2018-11-10T08:42:56.558Z,13.07
2018-11-10T08:45:25.791Z,13.53
2018-11-10T08:47:56.681Z,12.07
2018-11-10T08:50:25.623Z,14.90
2018-11-10T08:52:54.764Z,13.53
2018-11-10T08:55:23.676Z,11.07
2018-11-10T08:57:52.791Z,11.90
2018-11-10T09:00:21.936Z,11.53
2018-11-10T09:02:51.199Z,11.33
2018-11-10T09:05:20.391Z,17.37
2018-11-10T09:07:51.220Z,12.43
2018-11-10T09:10:20.314Z,13.40
2018-11-10T09:12:49.440Z,12.33
2018-11-10T09:15:18.519Z,10.67
2018-11-10T09:17:47.547Z,13.03
2018-11-10T09:20:17.779Z,9.30
2018-11-10T09:22:46.865Z,7.60
2018-11-10T09:25:16.899Z,8.37
2018-11-10T09:27:45.846Z,9.47
2018-11-10T09:30:15.913Z,7.37
2018-11-10T09:32:44.940Z,10.83
2018-11-10T09:35:14.749Z,8.40
2018-11-10T09:37:43.620Z,8.87
2018-11-10T09:40:18.080Z,9.33
2018-11-10T09:42:47.221Z,8.23
2018-11-10T09:45:17.119Z,9.87
2018-11-10T09:47:46.125Z,8.37
2018-11-10T09:50:17.635Z,6.67
2018-11-10T09:52:47.140Z,8.57
2018-11-10T09:55:18.489Z,6.17
2018-11-10T09:57:47.552Z,8.10
2018-11-10T10:00:21.432Z,4.67
2018-11-10T10:02:50.918Z,4.53
2018-11-10T10:05:19.615Z,4.73
2018-11-10T10:07:48.677Z,5.63
2018-11-10T10:10:18.498Z,5.80
2018-11-10T10:15:43.159Z,5.67
2018-11-10T10:18:12.823Z,5.03
2018-11-10T10:20:41.831Z,4.87
2018-11-10T10:23:10.667Z,4.37
2018-11-10T10:25:39.787Z,5.13
2018-11-10T10:28:08.833Z,4.47
2018-11-10T10:30:37.677Z,5.67
2018-11-10T10:33:06.638Z,3.93
2018-11-10T10:35:35.481Z,3.70
2018-11-10T10:38:04.163Z,6.77
2018-11-10T10:40:33.356Z,6.93
2018-11-10T10:43:04.388Z,4.30
2018-11-10T10:45:33.454Z,3.00
2018-11-10T10:48:02.280Z,7.47
2018-11-10T10:50:31.206Z,5.00
2018-11-10T10:53:00.484Z,7.87
2018-11-10T10:55:31.488Z,3.10
2018-11-10T10:58:00.334Z,6.00
2018-11-10T11:00:34.423Z,4.50
2018-11-10T11:03:08.624Z,3.87
2018-11-10T11:05:41.542Z,4.93
2018-11-10T11:08:10.602Z,5.40
2018-11-10T11:10:39.726Z,3.00
2018-11-10T11:13:08.811Z,5.37
2018-11-10T11:15:37.938Z,5.27
2018-11-10T11:18:06.989Z,4.40
2018-11-10T11:20:35.782Z,6.03
2018-11-10T11:23:06.321Z,4.80
2018-11-10T11:25:35.336Z,3.87
2018-11-10T11:28:04.481Z,4.90
2018-11-10T11:30:33.492Z,5.73
2018-11-10T11:33:02.712Z,5.20
2018-11-10T11:35:31.909Z,4.20
2018-11-10T11:38:01.376Z,6.73
2018-11-10T11:40:30.614Z,3.63
2018-11-10T11:42:59.748Z,6.03
2018-11-10T11:45:28.813Z,4.77
2018-11-10T11:47:57.880Z,5.97
2018-11-10T11:50:27.407Z,8.30
2018-11-10T11:52:56.587Z,13.73
2018-11-10T11:55:25.688Z,9.87
2018-11-10T11:57:55.009Z,6.17
2018-11-10T12:00:24.224Z,12.00
2018-11-10T12:02:53.234Z,6.90
2018-11-10T12:05:22.429Z,5.00
2018-11-10T12:07:51.432Z,3.57
2018-11-10T12:10:20.849Z,4.17
2018-11-10T12:12:50.071Z,4.20
2018-11-10T12:15:21.467Z,3.53
2018-11-10T12:17:50.562Z,4.00
2018-11-10T12:20:20.204Z,4.93
2018-11-10T12:22:52.640Z,3.93
2018-11-10T12:25:21.724Z,8.73
2018-11-10T12:27:50.820Z,6.20
2018-11-10T12:30:20.084Z,3.70
2018-11-10T12:32:52.767Z,5.17
2018-11-10T12:35:21.886Z,5.23
2018-11-10T12:37:50.992Z,3.60
2018-11-10T12:40:20.204Z,6.30
2018-11-10T12:42:49.319Z,4.70
2018-11-10T12:45:18.528Z,4.67
2018-11-10T12:47:47.801Z,4.00
2018-11-10T12:50:17.188Z,4.33
2018-11-10T12:52:46.437Z,3.83
2018-11-10T12:55:16.444Z,3.40
2018-11-10T12:57:46.288Z,5.07
2018-11-10T13:00:16.668Z,4.40
2018-11-10T13:02:46.319Z,3.43
2018-11-10T13:05:15.768Z,4.80
2018-11-10T13:07:46.158Z,4.97
2018-11-10T13:10:15.380Z,3.87
2018-11-10T13:12:44.936Z,4.33
2018-11-10T13:15:14.376Z,3.20
2018-11-10T13:17:44.120Z,3.40
2018-11-10T13:20:14.288Z,4.83
2018-11-10T13:22:45.852Z,5.33
2018-11-10T13:25:15.418Z,5.43
2018-11-10T13:27:44.610Z,4.63
2018-11-10T13:30:14.807Z,3.50
2018-11-10T13:32:44.197Z,4.03
2018-11-10T13:35:18.799Z,4.50
2018-11-10T13:37:48.415Z,5.30
2018-11-10T13:40:17.521Z,5.80
2018-11-10T13:42:47.018Z,4.60
2018-11-10T13:45:21.463Z,4.00
2018-11-10T13:48:05.700Z,5.17
2018-11-10T13:50:35.248Z,3.80
2018-11-10T13:53:08.267Z,6.07
2018-11-10T13:55:37.193Z,5.70
2018-11-10T13:58:07.683Z,4.67
2018-11-10T14:00:45.092Z,9.37
2018-11-10T14:03:15.732Z,6.23
2018-11-10T14:05:49.675Z,4.60
2018-11-10T14:08:23.047Z,4.77
2018-11-10T14:10:52.472Z,5.10
2018-11-10T14:13:25.956Z,3.50
2018-11-10T14:15:56.373Z,10.60
2018-11-10T14:18:25.838Z,4.83
2018-11-10T14:21:19.290Z,5.80
2018-11-10T14:23:52.494Z,5.30
2018-11-10T14:26:44.050Z,8.77
2018-11-10T14:29:13.408Z,10.07
2018-11-10T14:31:42.646Z,7.30
2018-11-10T14:34:15.861Z,9.67
2018-11-10T14:36:45.151Z,8.57
2018-11-10T14:39:14.532Z,6.03
2018-11-10T14:41:44.066Z,6.00
2018-11-10T14:44:13.154Z,9.40
2018-11-10T14:46:42.196Z,7.60
2018-11-10T14:49:17.267Z,7.13
2018-11-10T14:51:46.493Z,10.00
2018-11-10T14:54:17.354Z,6.37
2018-11-10T14:56:48.168Z,5.90
2018-11-10T14:59:19.436Z,6.87
2018-11-10T15:01:52.721Z,12.70
2018-11-10T15:04:26.134Z,22.17
2018-11-10T15:06:55.551Z,14.07
2018-11-10T15:09:28.533Z,9.10
2018-11-10T15:11:57.838Z,10.27
2018-11-10T15:14:29.290Z,12.47
2018-11-10T15:16:58.428Z,11.13
2018-11-10T15:19:31.521Z,13.03
2018-11-10T15:22:05.466Z,8.90
2018-11-10T15:24:34.893Z,11.07
2018-11-10T15:27:04.297Z,7.20
2018-11-10T15:29:38.093Z,8.90
2018-11-10T15:32:07.477Z,8.87
2018-11-10T15:34:37.850Z,8.27
2018-11-10T15:37:07.028Z,10.43
2018-11-10T15:39:36.641Z,7.97
2018-11-10T15:42:07.061Z,7.73
2018-11-10T15:44:39.943Z,11.10
2018-11-10T15:47:09.099Z,7.80
2018-11-10T15:49:40.338Z,11.30
2018-11-10T15:52:09.671Z,11.47
2018-11-10T15:54:38.985Z,11.13
2018-11-10T15:57:08.405Z,11.17
2018-11-10T15:59:37.787Z,10.80
2018-11-10T16:02:07.064Z,9.87
2018-11-10T16:04:38.367Z,10.67
2018-11-10T16:07:08.070Z,11.80
2018-11-10T16:09:37.258Z,11.70
2018-11-10T16:12:08.546Z,12.20
2018-11-10T16:14:37.682Z,11.40
2018-11-10T16:17:07.054Z,10.37
2018-11-10T16:19:40.677Z,11.70
2018-11-10T16:22:09.778Z,10.30
2018-11-10T16:24:38.950Z,10.13
2018-11-10T16:27:08.157Z,10.60
2018-11-10T16:29:37.440Z,10.97
2018-11-10T16:32:11.570Z,15.27
2018-11-10T16:34:40.614Z,12.77
2018-11-10T16:37:10.079Z,13.70
2018-11-10T16:39:40.517Z,11.63
2018-11-10T16:42:09.812Z,11.37
2018-11-10T16:44:39.111Z,11.33
2018-11-10T16:47:08.251Z,13.00
2018-11-10T16:49:37.398Z,15.07
2018-11-10T16:52:10.800Z,21.10
2018-11-10T16:54:40.018Z,11.13
2018-11-10T16:57:16.857Z,13.13
2018-11-10T16:59:47.231Z,13.00
2018-11-10T17:02:16.328Z,13.10
2018-11-10T17:04:45.888Z,12.60
2018-11-10T17:07:15.186Z,10.70
2018-11-10T17:09:47.505Z,11.10
2018-11-10T17:12:16.591Z,10.83
2018-11-10T17:14:49.297Z,13.97
2018-11-10T17:17:18.444Z,11.67
2018-11-10T17:19:51.680Z,10.60
2018-11-10T17:22:21.258Z,14.40
2018-11-10T17:24:51.864Z,12.93
2018-11-10T17:27:21.197Z,14.17
2018-11-10T17:29:54.939Z,13.73
2018-11-10T17:32:25.276Z,10.93
2018-11-10T17:35:01.300Z,12.47
2018-11-10T17:37:32.404Z,13.23
2018-11-10T17:40:03.756Z,13.73
2018-11-10T17:42:34.049Z,11.60
2018-11-10T17:45:05.614Z,12.40
2018-11-10T17:47:39.305Z,13.83
2018-11-10T17:50:09.853Z,11.00
2018-11-10T17:52:39.669Z,12.10
2018-11-10T17:55:13.924Z,11.00
2018-11-10T17:57:43.827Z,16.10
2018-11-10T18:00:14.273Z,13.83
2018-11-10T18:02:43.705Z,9.93
2018-11-10T18:05:14.145Z,14.40
2018-11-10T18:07:47.259Z,11.27
2018-11-10T18:10:18.276Z,10.17
2018-11-10T18:12:47.658Z,10.53
2018-11-10T18:15:18.212Z,14.50
2018-11-10T18:17:49.423Z,20.03
2018-11-10T18:20:19.798Z,19.40
2018-11-10T18:22:49.168Z,17.77
2018-11-10T18:25:18.191Z,23.83
2018-11-10T18:27:47.229Z,28.20
2018-11-10T18:30:18.654Z,17.57
2018-11-10T18:32:47.930Z,16.60
2018-11-10T18:35:25.148Z,14.90
2018-11-10T18:37:54.267Z,11.37
2018-11-10T18:40:30.346Z,18.17
2018-11-10T18:42:59.595Z,13.33
2018-11-10T18:45:28.702Z,14.57
2018-11-10T18:47:58.036Z,14.43
2018-11-10T18:50:27.355Z,13.30
2018-11-10T18:52:56.231Z,15.40
2018-11-10T18:55:25.564Z,11.93
2018-11-10T18:57:54.463Z,14.10
2018-11-10T19:00:23.338Z,9.43
2018-11-10T19:02:52.310Z,14.60
2018-11-10T19:05:21.194Z,9.77
2018-11-10T19:07:50.151Z,13.07
2018-11-10T19:10:19.642Z,10.83
2018-11-10T19:12:48.578Z,11.20
2018-11-10T19:15:19.343Z,12.03
2018-11-10T19:17:48.452Z,11.13
2018-11-10T19:20:19.569Z,12.47
2018-11-10T19:22:48.916Z,10.20
2018-11-10T19:25:19.300Z,9.97
2018-11-10T19:27:49.580Z,10.80
2018-11-10T19:30:20.655Z,8.00
2018-11-10T19:32:52.198Z,12.83
2018-11-10T19:35:22.158Z,10.10
2018-11-10T19:37:51.111Z,12.63
2018-11-10T19:40:20.247Z,7.57
2018-11-10T19:42:49.508Z,6.40
2018-11-10T19:45:19.037Z,8.73
2018-11-10T19:47:47.943Z,7.90
2018-11-10T19:50:18.207Z,6.83
2018-11-10T19:52:47.620Z,8.83
2018-11-10T19:55:17.831Z,10.13
2018-11-10T19:57:48.154Z,7.93
2018-11-10T20:00:24.591Z,10.70
2018-11-10T20:02:54.883Z,7.60
2018-11-10T20:05:24.549Z,8.23
2018-11-10T20:07:55.200Z,8.63
2018-11-10T20:10:24.240Z,6.83
2018-11-10T20:12:57.984Z,8.97
2018-11-10T20:15:27.224Z,7.90
2018-11-10T20:17:56.520Z,6.87
2018-11-10T20:20:26.486Z,7.67
2018-11-10T20:22:55.685Z,8.47
2018-11-10T20:25:24.825Z,7.73
2018-11-10T20:27:54.287Z,5.30
2018-11-10T20:30:27.216Z,8.40
2018-11-10T20:32:56.657Z,5.97
2018-11-10T20:35:28.864Z,6.00
2018-11-10T20:37:58.086Z,6.83
2018-11-10T20:40:27.450Z,9.00
2018-11-10T20:42:56.954Z,6.43
2018-11-10T20:45:27.224Z,8.03
2018-11-10T20:47:56.449Z,8.30
2018-11-10T20:50:30.179Z,9.77
2018-11-10T20:52:59.822Z,5.93
2018-11-10T20:55:29.179Z,14.27
2018-11-10T20:57:58.414Z,11.53
2018-11-10T21:00:31.720Z,6.70
2018-11-10T21:03:00.696Z,6.43
2018-11-10T21:05:29.929Z,7.53
2018-11-10T21:07:59.223Z,6.63
2018-11-10T21:10:28.537Z,7.67
2018-11-10T21:12:58.035Z,7.73
2018-11-10T21:15:28.277Z,5.97
2018-11-10T21:17:59.683Z,5.73
2018-11-10T21:20:29.122Z,7.37
2018-11-10T21:22:58.549Z,8.20
2018-11-10T21:25:27.665Z,7.13
2018-11-10T21:27:56.735Z,6.77
2018-11-10T21:30:25.891Z,5.87
2018-11-10T21:32:55.075Z,8.73
2018-11-10T21:35:25.401Z,8.97
2018-11-10T21:37:54.352Z,6.63
2018-11-10T21:40:24.727Z,6.73
2018-11-10T21:42:53.806Z,7.47
2018-11-10T21:45:25.162Z,6.33
2018-11-10T21:47:54.378Z,6.40
2018-11-10T21:50:23.554Z,7.23
2018-11-10T21:52:52.680Z,6.00
2018-11-10T21:55:21.810Z,6.43
2018-11-10T21:57:52.567Z,7.57
2018-11-10T22:00:22.606Z,6.83
2018-11-10T22:02:52.080Z,6.20
2018-11-10T22:05:21.823Z,7.23
2018-11-10T22:07:50.978Z,6.27
2018-11-10T22:10:20.554Z,6.80
2018-11-10T22:12:49.741Z,8.30
2018-11-10T22:15:22.140Z,6.10
2018-11-10T22:17:51.420Z,7.17
2018-11-10T22:20:21.905Z,10.13
2018-11-10T22:22:51.025Z,6.13
2018-11-10T22:25:20.235Z,8.63
2018-11-10T22:27:50.803Z,6.00
2018-11-10T22:30:21.070Z,7.90
2018-11-10T22:32:50.753Z,4.50
2018-11-10T22:35:19.894Z,6.63
2018-11-10T22:37:49.097Z,4.60
2018-11-10T22:40:24.572Z,5.57
2018-11-10T22:42:53.656Z,6.43
2018-11-10T22:45:23.018Z,9.30
2018-11-10T22:47:55.731Z,4.63
2018-11-10T22:50:25.623Z,6.47
2018-11-10T22:52:54.862Z,6.00
2018-11-10T22:55:24.113Z,6.17
2018-11-10T22:57:53.275Z,6.40
2018-11-10T23:00:24.543Z,4.90
2018-11-10T23:02:55.040Z,7.43
2018-11-10T23:05:24.821Z,7.43
2018-11-10T23:07:54.004Z,7.33
2018-11-10T23:10:25.383Z,7.53
2018-11-10T23:12:54.821Z,7.33
2018-11-10T23:15:26.287Z,5.00
2018-11-10T23:17:55.729Z,6.57
2018-11-10T23:20:26.160Z,11.17
2018-11-10T23:22:55.153Z,6.03
2018-11-10T23:25:24.397Z,7.80
2018-11-10T23:27:53.251Z,4.33
2018-11-10T23:30:23.042Z,6.13
2018-11-10T23:32:51.959Z,5.53
2018-11-10T23:35:20.927Z,5.13
2018-11-10T23:37:50.226Z,7.87
2018-11-10T23:40:19.528Z,5.70
2018-11-10T23:42:48.851Z,9.17
2018-11-10T23:45:18.177Z,5.17
2018-11-10T23:47:47.288Z,4.43
2018-11-10T23:50:18.985Z,6.67
2018-11-10T23:52:48.574Z,6.97
2018-11-10T23:55:17.994Z,5.67
2018-11-10T23:57:47.287Z,5.23
